Aviation Digital Data Service (ADDS)

Output produced by METARs form (1813 UTC 24 June 2018)
found at http://aviationweather.gov/adds/metars/
 
KHUM 241748Z 15009KT 7SM SCT027 32/26 A3003